Flight Track Log - Related Links

Times and Time Zones

All times are in EDT time to prevent confusion due to time zone crossing. See the ANA609 flight status page for this flight to view local times or setup timezone preferences in your user account.

Time Position Orientation Groundspeed Altitude Reporting Facility
EDT Latitude Longitude Course Direction KTS MPH feet Rate Location/Type
Tue 12:52:00 AM 34.5146 137.2173 244° Southwest  Level Estimated
Tue 12:53:00 AM 34.4683 137.1073 243° Southwest  Level Estimated
Tue 12:54:00 AM 34.4218 136.9975 243° Southwest  Level Estimated
Tue 12:55:00 AM 34.3753 136.8878 243° Southwest  Level Estimated
Tue 12:56:00 AM 34.3287 136.7782 243° Southwest  Level Estimated
Tue 12:57:00 AM 34.2820 136.6688 243° Southwest  Level Estimated
Tue 12:58:00 AM 34.2352 136.5594 243° Southwest  Level Estimated
Tue 12:59:00 AM 34.1883 136.4502 243° Southwest  Level Estimated
Tue 01:00:00 AM 34.1412 136.3412 243° Southwest  Level Estimated
Tue 01:01:00 AM 34.0941 136.2322 242° Southwest  Level Estimated
Tue 01:02:00 AM 34.0469 136.1234 242° Southwest  Level Estimated
Tue 01:03:00 AM 33.9996 136.0146 242° Southwest  Level Estimated
Tue 01:04:00 AM 33.9523 135.9060 242° Southwest  Level Estimated
Tue 01:05:00 AM 33.9048 135.7975 242° Southwest  Level Estimated
Tue 01:06:00 AM 33.8572 135.6892 242° Southwest  Level Estimated
Tue 01:07:00 AM 33.8095 135.5809 242° Southwest  Level Estimated
Tue 01:08:00 AM 33.7617 135.4728 242° Southwest  Level Estimated
Tue 01:09:00 AM 33.7139 135.3648 242° Southwest  Level Estimated
Tue 01:10:00 AM 33.6659 135.2569 242° Southwest  Level Estimated
Tue 01:11:00 AM 33.6179 135.1492 242° Southwest  Level Estimated
Tue 01:12:00 AM 33.5697 135.0416 242° Southwest  Level Estimated
Tue 01:13:00 AM 33.5215 134.9341 242° Southwest  Level Estimated
Tue 01:14:00 AM 33.4731 134.8267 242° Southwest  Level Estimated
Tue 01:15:00 AM 33.4247 134.7194 242° Southwest  Level Estimated
Tue 01:16:00 AM 33.3762 134.6122 242° Southwest  Level Estimated
Tue 01:17:00 AM 33.3276 134.5052 241° Southwest  Level Estimated
Tue 01:18:00 AM 33.2789 134.3983 241° Southwest  Level Estimated
Tue 01:19:00 AM 33.2301 134.2915 241° Southwest  Level Estimated
Tue 01:20:00 AM 33.1812 134.1848 241° Southwest  Level Estimated
Tue 01:21:00 AM 33.1323 134.0782 241° Southwest  Level Estimated
Tue 01:22:00 AM 33.0832 133.9718 241° Southwest  Level Estimated
Tue 01:23:00 AM 33.0340 133.8655 241° Southwest  Level Estimated
Tue 01:24:00 AM 32.9848 133.7593 241° Southwest  Level Estimated
Tue 01:25:00 AM 32.9355 133.6532 241° Southwest  Level Estimated
Tue 01:26:00 AM 32.8861 133.5472 241° Southwest  Level Estimated
Tue 01:27:00 AM 32.8365 133.4414 241° Southwest  Level Estimated
Tue 01:28:00 AM 32.7869 133.3356 241° Southwest  Level Estimated
Tue 01:29:00 AM 32.7373 133.2300 241° Southwest  Level Estimated
Tue 01:30:00 AM 32.6875 133.1245 241° Southwest  Level Estimated
Tue 01:31:00 AM 32.6376 133.0192 241° Southwest  Level Estimated
Tue 01:32:00 AM 32.5876 132.9139 241° Southwest  Level Estimated
Tue 01:33:00 AM 32.5376 132.8088 241° Southwest  Level Estimated
Tue 01:34:00 AM 32.4875 132.7038 241° Southwest  Level Estimated
Tue 01:35:00 AM 32.4372 132.5988 240° Southwest  Level Estimated
Tue 01:36:00 AM 32.3869 132.4940 240° Southwest  Level Estimated
Tue 01:37:00 AM 32.3366 132.3894 240° Southwest  Level Estimated
Tue 01:38:00 AM 32.2861 132.2848 240° Southwest  Level Estimated
Tue 01:39:00 AM 32.2355 132.1804 240° Southwest  Level Estimated
Tue 01:40:00 AM 32.1849 132.0761 240° Southwest  Level Estimated
Tue 01:41:00 AM 32.1341 131.9718 240° Southwest  Level Estimated
Tue 01:42:00 AM 32.0833 131.8678 240° Southwest  Level Estimated
Tue 01:43:00 AM 32.0324 131.7638 240° Southwest  Level Estimated
Tue 01:44:00 AM 31.9814 131.6599 240° Southwest  Level Estimated
Tue 01:45:00 AM 31.9303 131.5562 240° Southwest  Level Estimated
Tue 01:46:00 AM 31.8792 131.4525 240° Southwest  Level Estimated
Tue 01:47:00 AM 31.8772 131.4486 240° Southwest  Level Estimated
Tue 01:48:00 AM 31.8772 131.4486 23° Northeast  Level Estimated
Tue 01:49:00 AM 31.8772 131.4486 23° Northeast  Level Estimated
Tue 01:50:00 AM 31.8772 131.4486 23° Northeast  Level Estimated
Tue 01:51:00 AM 31.8772 131.4486 23° Northeast  Level Estimated
Tue 01:52:00 AM 31.8772 131.4486 23° Northeast  Level Estimated
Tue 01:53:00 AM 31.8772 131.4486 23° Northeast  Level Estimated
Tue 01:54:00 AM 31.8772 131.4486 23° Northeast  Level Estimated
Tue 01:55:00 AM 31.8772 131.4486 23° Northeast  Level Estimated
Tue 01:56:00 AM 31.8772 131.4486 23° Northeast  Level Estimated
Tue 01:57:00 AM 31.8772 131.4486 23° Northeast  Level Estimated
Tue 01:58:00 AM 31.8772 131.4486 23° Northeast  Level Estimated
Tue 01:59:00 AM 31.8772 131.4486 23° Northeast  Level Estimated

Login

Don't have an account? Register now (free) for customized features, flight alerts, and more!